sensor_id;sensor_type;location;lat;lon;timestamp;pressure;altitude;pressure_sealevel;temperature;humidity
17649;BME280;8943;51.110;-4.158;2022-12-10T00:10:59;100616.09;;;4.37;50.72
17649;BME280;8943;51.110;-4.158;2022-12-10T00:13:27;100615.31;;;4.35;50.98
17649;BME280;8943;51.110;-4.158;2022-12-10T00:18:33;100619.19;;;4.28;50.46
17649;BME280;8943;51.110;-4.158;2022-12-10T00:21:06;100628.16;;;4.24;51.04
17649;BME280;8943;51.110;-4.158;2022-12-10T00:23:36;100631.09;;;4.18;50.35
17649;BME280;8943;51.110;-4.158;2022-12-10T00:26:08;100624.34;;;4.12;50.84
17649;BME280;8943;51.110;-4.158;2022-12-10T00:28:38;100624.34;;;4.12;50.64
17649;BME280;8943;51.110;-4.158;2022-12-10T00:31:11;100628.63;;;4.15;50.46
17649;BME280;8943;51.110;-4.158;2022-12-10T00:33:40;100628.63;;;4.15;50.25
17649;BME280;8943;51.110;-4.158;2022-12-10T00:36:11;100621.63;;;4.14;50.10
17649;BME280;8943;51.110;-4.158;2022-12-10T00:38:44;100628.69;;;4.13;50.21
17649;BME280;8943;51.110;-4.158;2022-12-10T00:41:16;100629.50;;;4.16;50.28
17649;BME280;8943;51.110;-4.158;2022-12-10T00:43:46;100622.44;;;4.16;50.62
17649;BME280;8943;51.110;-4.158;2022-12-10T00:46:16;100623.41;;;4.13;50.10
17649;BME280;8943;51.110;-4.158;2022-12-10T00:48:48;100625.38;;;4.10;50.12
17649;BME280;8943;51.110;-4.158;2022-12-10T00:51:23;100630.66;;;4.10;49.93
17649;BME280;8943;51.110;-4.158;2022-12-10T00:53:54;100623.50;;;4.12;50.79
17649;BME280;8943;51.110;-4.158;2022-12-10T00:56:27;100621.63;;;4.14;50.25
17649;BME280;8943;51.110;-4.158;2022-12-10T00:58:57;100631.53;;;4.09;50.64
17649;BME280;8943;51.110;-4.158;2022-12-10T01:01:29;100631.63;;;4.07;50.38
17649;BME280;8943;51.110;-4.158;2022-12-10T01:04:00;100632.63;;;4.05;50.47
17649;BME280;8943;51.110;-4.158;2022-12-10T01:06:32;100631.84;;;4.03;50.68
17649;BME280;8943;51.110;-4.158;2022-12-10T01:09:03;100630.16;;;4.02;50.72
17649;BME280;8943;51.110;-4.158;2022-12-10T01:11:35;100634.63;;;4.00;50.73
17649;BME280;8943;51.110;-4.158;2022-12-10T01:14:05;100626.06;;;3.95;50.54
17649;BME280;8943;51.110;-4.158;2022-12-10T01:16:36;100627.94;;;3.93;50.29
17649;BME280;8943;51.110;-4.158;2022-12-10T01:19:05;100629.94;;;3.87;50.72
17649;BME280;8943;51.110;-4.158;2022-12-10T01:21:38;100629.31;;;3.82;50.87
17649;BME280;8943;51.110;-4.158;2022-12-10T01:24:28;100633.09;;;3.77;50.73
17649;BME280;8943;51.110;-4.158;2022-12-10T01:27:01;100628.09;;;3.71;50.98
17649;BME280;8943;51.110;-4.158;2022-12-10T01:29:33;100634.22;;;3.71;50.78
17649;BME280;8943;51.110;-4.158;2022-12-10T01:32:06;100626.47;;;3.68;50.65
17649;BME280;8943;51.110;-4.158;2022-12-10T01:34:36;100632.78;;;3.64;50.60
17649;BME280;8943;51.110;-4.158;2022-12-10T01:37:05;100629.53;;;3.59;50.85
17649;BME280;8943;51.110;-4.158;2022-12-10T01:39:38;100634.00;;;3.57;50.89
17649;BME280;8943;51.110;-4.158;2022-12-10T01:42:29;100619.09;;;3.56;50.59
17649;BME280;8943;51.110;-4.158;2022-12-10T01:45:08;100617.34;;;3.56;50.64
17649;BME280;8943;51.110;-4.158;2022-12-10T01:47:37;100612.13;;;3.55;50.78
17649;BME280;8943;51.110;-4.158;2022-12-10T01:53:01;100607.94;;;3.51;50.76
17649;BME280;8943;51.110;-4.158;2022-12-10T01:55:48;100609.66;;;3.52;50.61
17649;BME280;8943;51.110;-4.158;2022-12-10T01:58:19;100609.66;;;3.52;51.32
17649;BME280;8943;51.110;-4.158;2022-12-10T02:01:04;100610.44;;;3.54;51.19
17649;BME280;8943;51.110;-4.158;2022-12-10T02:03:42;100621.91;;;3.53;51.10
17649;BME280;8943;51.110;-4.158;2022-12-10T02:06:31;100606.94;;;3.53;51.06
17649;BME280;8943;51.110;-4.158;2022-12-10T02:09:09;100624.53;;;3.53;50.80
17649;BME280;8943;51.110;-4.158;2022-12-10T02:11:46;100619.28;;;3.53;50.77
17649;BME280;8943;51.110;-4.158;2022-12-10T02:14:30;100626.13;;;3.57;51.57
17649;BME280;8943;51.110;-4.158;2022-12-10T02:17:37;100629.59;;;3.57;51.20
17649;BME280;8943;51.110;-4.158;2022-12-10T02:20:10;100627.81;;;3.58;50.94
17649;BME280;8943;51.110;-4.158;2022-12-10T02:22:45;100620.84;;;3.57;51.07
17649;BME280;8943;51.110;-4.158;2022-12-10T02:25:18;100628.66;;;3.58;51.26
17649;BME280;8943;51.110;-4.158;2022-12-10T02:27:53;100624.13;;;3.62;51.21
17649;BME280;8943;51.110;-4.158;2022-12-10T02:30:46;100627.41;;;3.67;51.44
17649;BME280;8943;51.110;-4.158;2022-12-10T02:33:20;100615.78;;;3.71;51.16
17649;BME280;8943;51.110;-4.158;2022-12-10T02:35:58;100613.78;;;3.76;51.54
17649;BME280;8943;51.110;-4.158;2022-12-10T02:39:16;100632.56;;;3.87;51.88
17649;BME280;8943;51.110;-4.158;2022-12-10T02:42:17;100626.88;;;3.97;51.94
17649;BME280;8943;51.110;-4.158;2022-12-10T02:45:04;100635.19;;;4.06;51.91
17649;BME280;8943;51.110;-4.158;2022-12-10T02:53:20;100636.44;;;4.35;51.71
17649;BME280;8943;51.110;-4.158;2022-12-10T02:56:08;100641.25;;;4.45;51.81
17649;BME280;8943;51.110;-4.158;2022-12-10T02:59:07;100626.66;;;4.55;51.50
17649;BME280;8943;51.110;-4.158;2022-12-10T03:01:42;100631.63;;;4.61;51.62
17649;BME280;8943;51.110;-4.158;2022-12-10T03:04:18;100620.00;;;4.65;51.37
17649;BME280;8943;51.110;-4.158;2022-12-10T03:06:53;100611.84;;;4.70;51.71
17649;BME280;8943;51.110;-4.158;2022-12-10T03:09:29;100618.69;;;4.74;51.53
17649;BME280;8943;51.110;-4.158;2022-12-10T03:12:06;100627.28;;;4.77;51.34
17649;BME280;8943;51.110;-4.158;2022-12-10T03:14:43;100620.16;;;4.79;51.44
17649;BME280;8943;51.110;-4.158;2022-12-10T03:17:15;100619.91;;;4.84;51.46
17649;BME280;8943;51.110;-4.158;2022-12-10T03:19:47;100610.81;;;4.89;51.30
17649;BME280;8943;51.110;-4.158;2022-12-10T03:22:20;100604.38;;;4.95;51.30
17649;BME280;8943;51.110;-4.158;2022-12-10T03:24:59;100604.13;;;5.00;51.05
17649;BME280;8943;51.110;-4.158;2022-12-10T03:27:30;100601.34;;;5.03;51.09
17649;BME280;8943;51.110;-4.158;2022-12-10T03:30:03;100608.31;;;5.04;51.73
17649;BME280;8943;51.110;-4.158;2022-12-10T03:32:33;100603.97;;;5.03;51.49
17649;BME280;8943;51.110;-4.158;2022-12-10T03:35:04;100589.06;;;5.02;51.23
17649;BME280;8943;51.110;-4.158;2022-12-10T03:37:34;100583.78;;;5.02;51.59
17649;BME280;8943;51.110;-4.158;2022-12-10T03:40:08;100588.91;;;5.05;51.51
17649;BME280;8943;51.110;-4.158;2022-12-10T03:42:39;100583.38;;;5.09;51.62
17649;BME280;8943;51.110;-4.158;2022-12-10T03:45:09;100585.88;;;5.12;51.27
17649;BME280;8943;51.110;-4.158;2022-12-10T03:47:43;100583.13;;;5.14;51.62
17649;BME280;8943;51.110;-4.158;2022-12-10T03:50:15;100581.19;;;5.18;50.94
17649;BME280;8943;51.110;-4.158;2022-12-10T03:52:45;100580.94;;;5.22;51.82
17649;BME280;8943;51.110;-4.158;2022-12-10T03:55:20;100582.56;;;5.25;51.32
17649;BME280;8943;51.110;-4.158;2022-12-10T03:58:04;100585.03;;;5.28;51.09
17649;BME280;8943;51.110;-4.158;2022-12-10T04:00:35;100583.16;;;5.30;51.02
17649;BME280;8943;51.110;-4.158;2022-12-10T04:03:05;100581.22;;;5.33;51.17
17649;BME280;8943;51.110;-4.158;2022-12-10T04:05:36;100575.16;;;5.31;51.40
17649;BME280;8943;51.110;-4.158;2022-12-10T04:08:12;100575.09;;;5.33;50.77
17649;BME280;8943;51.110;-4.158;2022-12-10T04:11:03;100573.28;;;5.33;51.43
17649;BME280;8943;51.110;-4.158;2022-12-10T04:13:43;100581.97;;;5.35;51.44
17649;BME280;8943;51.110;-4.158;2022-12-10T04:16:36;100572.59;;;5.30;51.57
17649;BME280;8943;51.110;-4.158;2022-12-10T04:19:07;100576.09;;;5.30;51.73
17649;BME280;8943;51.110;-4.158;2022-12-10T04:41:49;100580.59;;;5.93;51.53
17649;BME280;8943;51.110;-4.158;2022-12-10T04:44:20;100584.06;;;5.93;51.75
17649;BME280;8943;51.110;-4.158;2022-12-10T04:47:12;100579.56;;;5.96;51.87
17649;BME280;8943;51.110;-4.158;2022-12-10T04:49:48;100571.44;;;5.99;51.63
17649;BME280;8943;51.110;-4.158;2022-12-10T04:52:17;100573.84;;;6.03;51.91
17649;BME280;8943;51.110;-4.158;2022-12-10T04:54:45;100579.63;;;6.10;51.79
17649;BME280;8943;51.110;-4.158;2022-12-10T04:57:15;100578.44;;;6.15;51.76
17649;BME280;8943;51.110;-4.158;2022-12-10T04:59:44;100586.00;;;6.22;51.88
17649;BME280;8943;51.110;-4.158;2022-12-10T05:02:12;100589.16;;;6.28;51.81
17649;BME280;8943;51.110;-4.158;2022-12-10T05:04:42;100593.50;;;6.29;51.84
17649;BME280;8943;51.110;-4.158;2022-12-10T05:07:15;100594.44;;;6.28;51.59
17649;BME280;8943;51.110;-4.158;2022-12-10T05:09:46;100589.34;;;6.25;51.93
17649;BME280;8943;51.110;-4.158;2022-12-10T05:12:16;100593.69;;;6.26;51.74
17649;BME280;8943;51.110;-4.158;2022-12-10T05:14:44;100588.56;;;6.23;51.79
17649;BME280;8943;51.110;-4.158;2022-12-10T05:17:13;100581.66;;;6.21;51.62
17649;BME280;8943;51.110;-4.158;2022-12-10T05:19:41;100579.03;;;6.21;52.01
17649;BME280;8943;51.110;-4.158;2022-12-10T05:22:18;100571.75;;;6.24;51.88
17649;BME280;8943;51.110;-4.158;2022-12-10T05:25:05;100564.59;;;6.26;52.25
17649;BME280;8943;51.110;-4.158;2022-12-10T05:42:12;100583.59;;;6.63;51.78
17649;BME280;8943;51.110;-4.158;2022-12-10T05:44:53;100596.66;;;6.66;52.16
17649;BME280;8943;51.110;-4.158;2022-12-10T05:47:48;100620.31;;;6.53;52.13
17649;BME280;8943;51.110;-4.158;2022-12-10T05:50:19;100594.50;;;6.42;52.51
17649;BME280;8943;51.110;-4.158;2022-12-10T05:52:50;100602.44;;;6.42;52.32
17649;BME280;8943;51.110;-4.158;2022-12-10T05:55:19;100618.31;;;6.42;52.42
17649;BME280;8943;51.110;-4.158;2022-12-10T05:57:49;100602.63;;;6.39;52.46
17649;BME280;8943;51.110;-4.158;2022-12-10T06:00:22;100577.88;;;6.40;52.57
17649;BME280;8943;51.110;-4.158;2022-12-10T06:02:50;100574.09;;;6.44;52.05
17649;BME280;8943;51.110;-4.158;2022-12-10T06:05:18;100582.34;;;6.54;52.47
17649;BME280;8943;51.110;-4.158;2022-12-10T06:07:46;100578.28;;;6.63;52.35
17649;BME280;8943;51.110;-4.158;2022-12-10T06:10:15;100573.41;;;6.71;52.21
17649;BME280;8943;51.110;-4.158;2022-12-10T06:12:43;100575.50;;;6.80;52.17
17649;BME280;8943;51.110;-4.158;2022-12-10T06:15:13;100564.53;;;6.86;52.31
17649;BME280;8943;51.110;-4.158;2022-12-10T06:17:41;100578.28;;;6.93;51.96
17649;BME280;8943;51.110;-4.158;2022-12-10T06:20:10;100584.97;;;6.99;52.15
17649;BME280;8943;51.110;-4.158;2022-12-10T06:22:38;100582.06;;;7.03;52.07
17649;BME280;8943;51.110;-4.158;2022-12-10T06:25:07;100592.28;;;7.09;52.16
17649;BME280;8943;51.110;-4.158;2022-12-10T06:27:38;100600.13;;;7.11;52.14
17649;BME280;8943;51.110;-4.158;2022-12-10T06:30:08;100602.97;;;7.08;52.22
17649;BME280;8943;51.110;-4.158;2022-12-10T06:32:38;100608.91;;;7.11;52.21
17649;BME280;8943;51.110;-4.158;2022-12-10T06:35:09;100600.97;;;7.11;52.12
17649;BME280;8943;51.110;-4.158;2022-12-10T06:37:38;100580.63;;;7.12;52.55
17649;BME280;8943;51.110;-4.158;2022-12-10T06:40:07;100578.91;;;7.11;52.04
17649;BME280;8943;51.110;-4.158;2022-12-10T06:42:36;100583.28;;;7.12;52.15
17649;BME280;8943;51.110;-4.158;2022-12-10T06:45:04;100580.63;;;7.12;52.08
17649;BME280;8943;51.110;-4.158;2022-12-10T06:47:33;100586.69;;;7.14;52.23
17649;BME280;8943;51.110;-4.158;2022-12-10T06:50:10;100586.59;;;7.15;52.44
17649;BME280;8943;51.110;-4.158;2022-12-10T06:52:38;100588.38;;;7.15;52.28
17649;BME280;8943;51.110;-4.158;2022-12-10T06:55:06;100577.06;;;7.13;52.22
17649;BME280;8943;51.110;-4.158;2022-12-10T06:57:35;100570.03;;;7.12;52.64
17649;BME280;8943;51.110;-4.158;2022-12-10T07:00:06;100570.03;;;7.12;52.42
17649;BME280;8943;51.110;-4.158;2022-12-10T07:02:35;100558.78;;;7.08;52.27
17649;BME280;8943;51.110;-4.158;2022-12-10T07:05:04;100559.81;;;7.06;52.48
17649;BME280;8943;51.110;-4.158;2022-12-10T07:07:35;100558.28;;;7.02;52.57
17649;BME280;8943;51.110;-4.158;2022-12-10T07:10:04;100559.97;;;7.03;52.28
17649;BME280;8943;51.110;-4.158;2022-12-10T07:12:33;100569.38;;;7.08;52.27
17649;BME280;8943;51.110;-4.158;2022-12-10T07:15:01;100566.63;;;7.10;52.73
17649;BME280;8943;51.110;-4.158;2022-12-10T07:17:29;100565.41;;;7.15;52.59
17649;BME280;8943;51.110;-4.158;2022-12-10T07:19:57;100560.94;;;7.16;52.61
17649;BME280;8943;51.110;-4.158;2022-12-10T07:22:26;100568.81;;;7.17;52.24
17649;BME280;8943;51.110;-4.158;2022-12-10T07:24:55;100586.50;;;7.17;52.45
17649;BME280;8943;51.110;-4.158;2022-12-10T07:27:24;100581.19;;;7.17;52.36
17649;BME280;8943;51.110;-4.158;2022-12-10T07:29:54;100591.50;;;7.21;52.60
17649;BME280;8943;51.110;-4.158;2022-12-10T07:32:22;100592.19;;;7.25;52.59
17649;BME280;8943;51.110;-4.158;2022-12-10T07:34:50;100593.81;;;7.28;52.63
17649;BME280;8943;51.110;-4.158;2022-12-10T07:37:18;100584.91;;;7.29;52.59
17649;BME280;8943;51.110;-4.158;2022-12-10T07:39:46;100585.63;;;7.31;52.46
17649;BME280;8943;51.110;-4.158;2022-12-10T07:42:17;100584.78;;;7.30;52.54
17649;BME280;8943;51.110;-4.158;2022-12-10T07:44:53;100579.50;;;7.30;52.35
17649;BME280;8943;51.110;-4.158;2022-12-10T07:48:04;100578.75;;;7.28;52.43
17649;BME280;8943;51.110;-4.158;2022-12-10T07:51:09;100586.88;;;7.25;52.53
17649;BME280;8943;51.110;-4.158;2022-12-10T07:53:38;100579.78;;;7.26;52.72
17649;BME280;8943;51.110;-4.158;2022-12-10T07:56:06;100585.91;;;7.26;52.63
17649;BME280;8943;51.110;-4.158;2022-12-10T07:58:37;100587.66;;;7.27;52.69
17649;BME280;8943;51.110;-4.158;2022-12-10T08:01:09;100578.19;;;7.23;52.66
17649;BME280;8943;51.110;-4.158;2022-12-10T08:03:38;100593.22;;;7.22;52.74
17649;BME280;8943;51.110;-4.158;2022-12-10T08:06:11;100604.56;;;7.25;52.74
17649;BME280;8943;51.110;-4.158;2022-12-10T08:08:41;100613.38;;;7.25;52.57
17649;BME280;8943;51.110;-4.158;2022-12-10T08:11:10;100612.34;;;7.28;52.92
17649;BME280;8943;51.110;-4.158;2022-12-10T08:13:41;100611.50;;;7.27;52.82
17649;BME280;8943;51.110;-4.158;2022-12-10T08:16:11;100619.44;;;7.27;52.78
17649;BME280;8943;51.110;-4.158;2022-12-10T08:18:44;100623.88;;;7.27;52.43
17649;BME280;8943;51.110;-4.158;2022-12-10T08:21:15;100622.19;;;7.26;52.21
17649;BME280;8943;51.110;-4.158;2022-12-10T08:23:44;100607.41;;;7.21;52.25
17649;BME280;8943;51.110;-4.158;2022-12-10T08:26:15;100600.41;;;7.20;52.47
17649;BME280;8943;51.110;-4.158;2022-12-10T08:28:46;100589.91;;;7.19;52.56
17649;BME280;8943;51.110;-4.158;2022-12-10T08:31:19;100597.97;;;7.17;52.69
17649;BME280;8943;51.110;-4.158;2022-12-10T08:33:48;100595.38;;;7.16;52.52
17649;BME280;8943;51.110;-4.158;2022-12-10T08:36:17;100594.66;;;7.14;52.49
17649;BME280;8943;51.110;-4.158;2022-12-10T08:38:46;100597.56;;;7.09;52.50
17649;BME280;8943;51.110;-4.158;2022-12-10T08:41:16;100604.66;;;7.09;52.72
17649;BME280;8943;51.110;-4.158;2022-12-10T08:43:47;100603.81;;;7.08;52.58
17649;BME280;8943;51.110;-4.158;2022-12-10T08:46:17;100602.03;;;7.09;52.79
17649;BME280;8943;51.110;-4.158;2022-12-10T08:48:46;100593.97;;;7.10;52.91
17649;BME280;8943;51.110;-4.158;2022-12-10T08:51:16;100587.66;;;7.13;52.79
17649;BME280;8943;51.110;-4.158;2022-12-10T08:53:44;100596.34;;;7.15;52.85
17649;BME280;8943;51.110;-4.158;2022-12-10T08:56:13;100607.63;;;7.18;53.16
17649;BME280;8943;51.110;-4.158;2022-12-10T08:58:42;100607.41;;;7.21;52.93
17649;BME280;8943;51.110;-4.158;2022-12-10T09:01:13;100618.69;;;7.25;52.69
17649;BME280;8943;51.110;-4.158;2022-12-10T09:03:42;100609.69;;;7.28;52.80
17649;BME280;8943;51.110;-4.158;2022-12-10T09:06:12;100608.66;;;7.30;52.76
17649;BME280;8943;51.110;-4.158;2022-12-10T09:08:41;100610.28;;;7.33;52.65
17649;BME280;8943;51.110;-4.158;2022-12-10T09:11:12;100605.59;;;7.36;52.50
17649;BME280;8943;51.110;-4.158;2022-12-10T09:13:41;100594.09;;;7.37;52.62
17649;BME280;8943;51.110;-4.158;2022-12-10T09:16:12;100595.66;;;7.40;52.74
17649;BME280;8943;51.110;-4.158;2022-12-10T09:18:43;100600.13;;;7.39;52.67
17649;BME280;8943;51.110;-4.158;2022-12-10T09:21:13;100601.81;;;7.40;52.61
17649;BME280;8943;51.110;-4.158;2022-12-10T09:23:43;100602.88;;;7.38;52.58
17649;BME280;8943;51.110;-4.158;2022-12-10T09:26:13;100600.31;;;7.36;52.69
17649;BME280;8943;51.110;-4.158;2022-12-10T09:28:44;100620.47;;;7.39;53.08
17649;BME280;8943;51.110;-4.158;2022-12-10T09:31:15;100622.19;;;7.40;52.90
17649;BME280;8943;51.110;-4.158;2022-12-10T09:33:47;100621.16;;;7.42;53.33
17649;BME280;8943;51.110;-4.158;2022-12-10T09:36:18;100631.47;;;7.47;53.00
17649;BME280;8943;51.110;-4.158;2022-12-10T09:38:52;100634.59;;;7.54;52.96
17649;BME280;8943;51.110;-4.158;2022-12-10T09:42:02;100628.03;;;7.59;52.85
17649;BME280;8943;51.110;-4.158;2022-12-10T09:48:11;100620.66;;;7.64;52.81
17649;BME280;8943;51.110;-4.158;2022-12-10T09:50:49;100613.91;;;7.73;53.08
17649;BME280;8943;51.110;-4.158;2022-12-10T09:53:21;100610.75;;;7.81;52.96
17649;BME280;8943;51.110;-4.158;2022-12-10T09:56:24;100610.09;;;7.91;52.92
17649;BME280;8943;51.110;-4.158;2022-12-10T09:58:56;100604.41;;;7.97;53.06
17649;BME280;8943;51.110;-4.158;2022-12-10T10:01:29;100614.59;;;8.04;52.96
17649;BME280;8943;51.110;-4.158;2022-12-10T10:04:04;100611.53;;;8.10;52.99
17649;BME280;8943;51.110;-4.158;2022-12-10T10:06:35;100619.03;;;8.17;52.77
17649;BME280;8943;51.110;-4.158;2022-12-10T10:09:20;100617.09;;;8.19;52.86
17649;BME280;8943;51.110;-4.158;2022-12-10T10:11:52;100623.47;;;8.17;52.77
17649;BME280;8943;51.110;-4.158;2022-12-10T10:14:25;100622.81;;;8.13;52.89
17649;BME280;8943;51.110;-4.158;2022-12-10T10:16:59;100630.66;;;8.15;52.88
17649;BME280;8943;51.110;-4.158;2022-12-10T10:19:33;100638.63;;;8.15;52.61
17649;BME280;8943;51.110;-4.158;2022-12-10T10:22:09;100627.28;;;8.13;52.79
17649;BME280;8943;51.110;-4.158;2022-12-10T10:24:40;100621.78;;;8.16;52.82
17649;BME280;8943;51.110;-4.158;2022-12-10T10:27:14;100622.72;;;8.15;52.39
17649;BME280;8943;51.110;-4.158;2022-12-10T10:29:43;100632.78;;;8.10;52.65
17649;BME280;8943;51.110;-4.158;2022-12-10T10:32:25;100623.53;;;8.03;52.77
17649;BME280;8943;51.110;-4.158;2022-12-10T10:34:58;100626.75;;;7.93;52.76
17649;BME280;8943;51.110;-4.158;2022-12-10T10:37:30;100619.94;;;7.89;52.86
17649;BME280;8943;51.110;-4.158;2022-12-10T10:39:59;100610.41;;;7.87;52.80
17649;BME280;8943;51.110;-4.158;2022-12-10T10:42:37;100619.94;;;7.89;53.10
17649;BME280;8943;51.110;-4.158;2022-12-10T10:45:35;100626.56;;;7.96;53.05
17649;BME280;8943;51.110;-4.158;2022-12-10T10:48:10;100615.75;;;7.99;53.17
17649;BME280;8943;51.110;-4.158;2022-12-10T10:50:45;100613.00;;;8.01;53.25
17649;BME280;8943;51.110;-4.158;2022-12-10T11:28:00;100609.44;;;8.82;52.79
17649;BME280;8943;51.110;-4.158;2022-12-10T11:30:54;100609.91;;;8.88;53.04
17649;BME280;8943;51.110;-4.158;2022-12-10T12:07:18;100602.63;;;8.65;52.65
17649;BME280;8943;51.110;-4.158;2022-12-10T12:13:27;100577.31;;;8.46;52.53
17649;BME280;8943;51.110;-4.158;2022-12-10T12:16:17;100568.81;;;8.41;52.71
17649;BME280;8943;51.110;-4.158;2022-12-10T12:19:16;100563.59;;;8.40;52.73
17649;BME280;8943;51.110;-4.158;2022-12-10T12:21:48;100555.72;;;8.38;52.73
17649;BME280;8943;51.110;-4.158;2022-12-10T12:24:31;100562.84;;;8.38;52.92
17649;BME280;8943;51.110;-4.158;2022-12-10T12:27:09;100577.94;;;8.37;53.14
17649;BME280;8943;51.110;-4.158;2022-12-10T12:30:14;100579.53;;;8.40;52.77
17649;BME280;8943;51.110;-4.158;2022-12-10T12:32:51;100591.53;;;8.45;52.71
17649;BME280;8943;51.110;-4.158;2022-12-10T12:35:31;100572.75;;;8.48;52.82
17649;BME280;8943;51.110;-4.158;2022-12-10T12:38:25;100569.69;;;8.55;52.88
17649;BME280;8943;51.110;-4.158;2022-12-10T12:41:02;100576.28;;;8.62;52.81
17649;BME280;8943;51.110;-4.158;2022-12-10T12:43:44;100569.63;;;8.69;52.51
17649;BME280;8943;51.110;-4.158;2022-12-10T12:46:23;100570.16;;;8.74;52.89
17649;BME280;8943;51.110;-4.158;2022-12-10T12:49:27;100562.72;;;8.79;52.86
17649;BME280;8943;51.110;-4.158;2022-12-10T12:52:01;100573.41;;;8.77;52.94
17649;BME280;8943;51.110;-4.158;2022-12-10T12:54:45;100573.09;;;8.82;52.88
17649;BME280;8943;51.110;-4.158;2022-12-10T12:57:43;100566.53;;;8.88;52.93
17649;BME280;8943;51.110;-4.158;2022-12-10T13:00:16;100555.81;;;8.89;53.18
17649;BME280;8943;51.110;-4.158;2022-12-10T13:07:33;100554.84;;;8.90;52.84
17649;BME280;8943;51.110;-4.158;2022-12-10T13:10:44;100556.53;;;8.91;52.60
17649;BME280;8943;51.110;-4.158;2022-12-10T13:19:36;100543.06;;;8.94;52.61
17649;BME280;8943;51.110;-4.158;2022-12-10T13:22:08;100539.75;;;9.03;53.10
17649;BME280;8943;51.110;-4.158;2022-12-10T13:25:17;100555.03;;;9.25;53.36
17649;BME280;8943;51.110;-4.158;2022-12-10T13:28:26;100554.66;;;9.55;53.39
17649;BME280;8943;51.110;-4.158;2022-12-10T13:31:33;100546.44;;;9.71;53.23
17649;BME280;8943;51.110;-4.158;2022-12-10T13:34:23;100551.81;;;9.83;53.03
17649;BME280;8943;51.110;-4.158;2022-12-10T13:37:13;100547.84;;;9.88;53.19
17649;BME280;8943;51.110;-4.158;2022-12-10T13:39:50;100556.13;;;9.96;52.69
17649;BME280;8943;51.110;-4.158;2022-12-10T13:42:30;100559.38;;;10.00;52.86
17649;BME280;8943;51.110;-4.158;2022-12-10T13:53:56;100570.59;;;9.55;52.18
17649;BME280;8943;51.110;-4.158;2022-12-10T13:56:50;100562.56;;;9.44;51.90
17649;BME280;8943;51.110;-4.158;2022-12-10T14:02:48;100563.31;;;9.21;52.38
17649;BME280;8943;51.110;-4.158;2022-12-10T14:05:34;100560.47;;;9.11;52.54
17649;BME280;8943;51.110;-4.158;2022-12-10T16:16:09;100548.28;;;8.04;52.82
17649;BME280;8943;51.110;-4.158;2022-12-10T16:44:48;100531.00;;;7.57;52.04
17649;BME280;8943;51.110;-4.158;2022-12-10T16:47:21;100529.78;;;7.48;51.98
17649;BME280;8943;51.110;-4.158;2022-12-10T16:50:10;100523.81;;;7.44;52.06
17649;BME280;8943;51.110;-4.158;2022-12-10T16:52:48;100521.47;;;7.40;51.86
17649;BME280;8943;51.110;-4.158;2022-12-10T16:55:58;100518.25;;;7.35;52.47
17649;BME280;8943;51.110;-4.158;2022-12-10T16:59:25;100516.72;;;7.31;52.16
17649;BME280;8943;51.110;-4.158;2022-12-10T17:14:28;100527.47;;;7.01;52.63
17649;BME280;8943;51.110;-4.158;2022-12-10T17:25:10;100522.25;;;6.99;52.57
17649;BME280;8943;51.110;-4.158;2022-12-10T17:42:21;100521.78;;;6.92;53.15
17649;BME280;8943;51.110;-4.158;2022-12-10T17:44:49;100521.59;;;6.95;53.10
17649;BME280;8943;51.110;-4.158;2022-12-10T17:49:53;100510.63;;;7.02;53.13
17649;BME280;8943;51.110;-4.158;2022-12-10T17:52:24;100520.84;;;7.08;52.96
17649;BME280;8943;51.110;-4.158;2022-12-10T17:54:53;100521.31;;;7.14;53.24
17649;BME280;8943;51.110;-4.158;2022-12-10T19:41:30;100529.13;;;7.86;53.56
17649;BME280;8943;51.110;-4.158;2022-12-10T19:44:08;100514.97;;;7.85;53.04
17649;BME280;8943;51.110;-4.158;2022-12-10T19:52:03;100516.34;;;7.78;53.20
17649;BME280;8943;51.110;-4.158;2022-12-10T19:54:35;100519.00;;;7.78;53.30
17649;BME280;8943;51.110;-4.158;2022-12-10T19:57:16;100518.16;;;7.78;53.31
17649;BME280;8943;51.110;-4.158;2022-12-10T19:59:47;100523.34;;;7.79;53.26
17649;BME280;8943;51.110;-4.158;2022-12-10T20:02:16;100518.03;;;7.79;53.05
17649;BME280;8943;51.110;-4.158;2022-12-10T20:04:48;100511.03;;;7.78;53.28
17649;BME280;8943;51.110;-4.158;2022-12-10T20:07:25;100509.06;;;7.82;53.29
17649;BME280;8943;51.110;-4.158;2022-12-10T20:09:54;100508.22;;;7.81;53.29
17649;BME280;8943;51.110;-4.158;2022-12-10T20:13:17;100505.34;;;7.84;53.14
17649;BME280;8943;51.110;-4.158;2022-12-10T20:15:47;100491.53;;;7.79;53.42
17649;BME280;8943;51.110;-4.158;2022-12-10T20:18:31;100483.00;;;7.74;53.14
17649;BME280;8943;51.110;-4.158;2022-12-10T20:21:05;100482.59;;;7.67;52.97
17649;BME280;8943;51.110;-4.158;2022-12-10T20:23:36;100479.56;;;7.59;52.83
17649;BME280;8943;51.110;-4.158;2022-12-10T20:26:19;100476.56;;;7.51;53.01
17649;BME280;8943;51.110;-4.158;2022-12-10T20:29:21;100476.28;;;7.41;53.14
17649;BME280;8943;51.110;-4.158;2022-12-10T20:31:54;100481.16;;;7.35;53.09
17649;BME280;8943;51.110;-4.158;2022-12-10T20:34:37;100469.88;;;7.31;52.99
17649;BME280;8943;51.110;-4.158;2022-12-10T20:37:09;100469.44;;;7.25;53.25
17649;BME280;8943;51.110;-4.158;2022-12-10T20:39:39;100471.41;;;7.21;53.09
17649;BME280;8943;51.110;-4.158;2022-12-10T20:42:07;100474.91;;;7.21;52.99
17649;BME280;8943;51.110;-4.158;2022-12-10T20:44:51;100469.00;;;7.18;53.59
17649;BME280;8943;51.110;-4.158;2022-12-10T20:47:20;100467.25;;;7.17;53.08
17649;BME280;8943;51.110;-4.158;2022-12-10T20:49:48;100474.66;;;7.12;53.07
17649;BME280;8943;51.110;-4.158;2022-12-10T20:52:17;100481.84;;;7.10;52.97
17649;BME280;8943;51.110;-4.158;2022-12-10T20:54:45;100487.34;;;7.07;53.24
17649;BME280;8943;51.110;-4.158;2022-12-10T20:57:14;100478.47;;;7.08;53.53
17649;BME280;8943;51.110;-4.158;2022-12-10T20:59:59;100484.41;;;7.11;53.45
17649;BME280;8943;51.110;-4.158;2022-12-10T22:15:45;100451.25;;;7.87;53.04
17649;BME280;8943;51.110;-4.158;2022-12-10T22:18:21;100450.09;;;7.91;53.68
17649;BME280;8943;51.110;-4.158;2022-12-10T22:21:24;100443.84;;;7.92;53.73
17649;BME280;8943;51.110;-4.158;2022-12-10T22:24:30;100443.59;;;7.95;53.61
17649;BME280;8943;51.110;-4.158;2022-12-10T22:27:18;100440.66;;;7.99;53.50
17649;BME280;8943;51.110;-4.158;2022-12-10T22:29:49;100439.59;;;8.02;53.64
17649;BME280;8943;51.110;-4.158;2022-12-10T23:14:41;100458.78;;;7.93;53.54
17649;BME280;8943;51.110;-4.158;2022-12-10T23:17:28;100452.31;;;7.97;53.77